createdAt,value
2023-03-02T00:00:11.649Z,10.49
2023-03-02T00:00:35.946Z,10.43
2023-03-02T00:01:03.643Z,10.46
2023-03-02T00:01:31.106Z,10.48
2023-03-02T00:01:56.435Z,10.46
2023-03-02T00:02:22.243Z,10.46
2023-03-02T00:02:46.379Z,10.47
2023-03-02T00:03:10.434Z,10.38
2023-03-02T00:03:33.385Z,10.51
2023-03-02T00:03:59.952Z,10.51
2023-03-02T00:04:25.688Z,10.47
2023-03-02T00:04:52.082Z,10.51
2023-03-02T00:05:14.479Z,10.51
2023-03-02T00:05:37.883Z,10.49
2023-03-02T00:06:00.938Z,10.47
2023-03-02T00:06:22.531Z,10.47
2023-03-02T00:06:44.288Z,10.46
2023-03-02T00:07:10.171Z,10.44
2023-03-02T00:07:35.649Z,10.41
2023-03-02T00:08:00.244Z,10.42
2023-03-02T00:08:24.094Z,10.39
2023-03-02T00:08:47.134Z,10.39
2023-03-02T00:09:09.859Z,10.41
2023-03-02T00:09:33.728Z,10.39
2023-03-02T00:09:55.453Z,10.43
2023-03-02T00:10:17.152Z,10.42
2023-03-02T00:10:38.835Z,10.43
2023-03-02T00:11:02.324Z,10.42
2023-03-02T00:11:23.948Z,10.46
2023-03-02T00:11:45.844Z,10.44
2023-03-02T00:12:08.270Z,10.46
2023-03-02T00:12:36.159Z,10.48
2023-03-02T00:13:00.417Z,10.47
2023-03-02T00:13:22.394Z,10.46
2023-03-02T00:13:44.232Z,10.48
2023-03-02T00:14:06.078Z,10.42
2023-03-02T00:14:28.726Z,10.48
2023-03-02T00:14:50.354Z,10.43
2023-03-02T00:15:12.063Z,10.50
2023-03-02T00:15:34.318Z,10.51
2023-03-02T00:15:57.015Z,10.50
2023-03-02T00:16:18.761Z,10.48
2023-03-02T00:16:40.796Z,10.48
2023-03-02T00:17:02.704Z,10.48
2023-03-02T00:17:30.198Z,10.47
2023-03-02T00:17:53.324Z,10.48
2023-03-02T00:18:16.341Z,10.47
2023-03-02T00:18:38.013Z,10.49
2023-03-02T00:18:59.763Z,10.50
2023-03-02T00:19:21.542Z,10.31
2023-03-02T00:19:44.799Z,10.53
2023-03-02T00:20:10.034Z,10.52
2023-03-02T00:20:31.860Z,10.51
2023-03-02T00:20:53.766Z,10.37
2023-03-02T00:21:15.532Z,10.53
2023-03-02T00:21:38.111Z,10.54
2023-03-02T00:21:59.710Z,10.53
2023-03-02T00:22:22.702Z,10.56
2023-03-02T00:22:45.848Z,10.51
2023-03-02T00:23:07.453Z,10.54
2023-03-02T00:23:30.685Z,10.55
2023-03-02T00:23:52.778Z,10.55
2023-03-02T00:24:15.527Z,10.52
2023-03-02T00:24:37.418Z,10.53
2023-03-02T00:24:59.955Z,10.34
2023-03-02T00:25:21.661Z,10.52
2023-03-02T00:25:43.282Z,10.51
2023-03-02T00:26:05.709Z,10.47
2023-03-02T00:26:27.917Z,10.51
2023-03-02T00:26:50.614Z,10.52
2023-03-02T00:27:12.521Z,10.46
2023-03-02T00:27:37.113Z,10.50
2023-03-02T00:27:58.747Z,10.48
2023-03-02T00:28:20.385Z,10.49
2023-03-02T00:28:41.962Z,10.48
2023-03-02T00:29:05.054Z,10.47
2023-03-02T00:29:26.667Z,10.46
2023-03-02T00:29:48.464Z,10.44
2023-03-02T00:30:12.102Z,10.33
2023-03-02T00:30:33.859Z,10.42
2023-03-02T00:30:56.546Z,10.44
2023-03-02T00:31:18.464Z,10.44
2023-03-02T00:31:40.353Z,10.44
2023-03-02T00:32:03.764Z,10.44
2023-03-02T00:32:26.800Z,10.46
2023-03-02T00:32:49.564Z,10.45
2023-03-02T00:33:11.203Z,10.49
2023-03-02T00:33:33.178Z,10.47
2023-03-02T00:33:54.888Z,10.52
2023-03-02T00:34:17.746Z,10.52
2023-03-02T00:34:39.430Z,10.52
2023-03-02T00:35:01.144Z,10.52
2023-03-02T00:35:23.672Z,10.48
2023-03-02T00:35:45.332Z,10.48
2023-03-02T00:36:15.989Z,10.45
2023-03-02T00:36:37.849Z,10.45
2023-03-02T00:36:59.602Z,10.46
2023-03-02T00:37:22.559Z,10.47
2023-03-02T00:37:45.092Z,10.43
2023-03-02T00:38:08.239Z,10.35
2023-03-02T00:38:30.231Z,10.42
2023-03-02T00:38:52.277Z,10.45
2023-03-02T00:39:14.283Z,10.45
2023-03-02T00:39:36.875Z,10.47
2023-03-02T00:39:58.441Z,10.48
2023-03-02T00:40:20.112Z,10.48
2023-03-02T00:40:45.733Z,10.46
2023-03-02T00:41:08.476Z,10.47
2023-03-02T00:41:30.345Z,10.45
2023-03-02T00:41:51.988Z,10.46
2023-03-02T00:42:13.893Z,10.45
2023-03-02T00:42:37.322Z,10.45
2023-03-02T00:42:58.914Z,10.43
2023-03-02T00:43:22.801Z,10.32
2023-03-02T00:43:44.642Z,10.36
2023-03-02T00:44:07.194Z,10.42
2023-03-02T00:44:28.836Z,10.40
2023-03-02T00:44:52.478Z,10.43
2023-03-02T00:45:14.229Z,10.42
2023-03-02T00:45:35.837Z,10.44
2023-03-02T00:45:59.001Z,10.46
2023-03-02T00:46:24.334Z,10.46
2023-03-02T00:46:46.382Z,10.46
2023-03-02T00:47:08.015Z,10.49
2023-03-02T00:47:30.790Z,10.47
2023-03-02T00:47:52.457Z,10.49
2023-03-02T00:48:24.686Z,10.44
2023-03-02T00:48:46.689Z,10.45
2023-03-02T00:49:08.866Z,10.43
2023-03-02T00:49:31.419Z,10.42
2023-03-02T00:49:53.035Z,10.38
2023-03-02T00:50:14.636Z,10.43
2023-03-02T00:50:40.826Z,10.44
2023-03-02T00:51:03.384Z,10.42
2023-03-02T00:51:25.135Z,10.39
2023-03-02T00:51:46.956Z,10.31
2023-03-02T00:52:08.644Z,10.41
2023-03-02T00:52:32.761Z,10.38
2023-03-02T00:52:54.430Z,10.41
2023-03-02T00:53:16.234Z,10.43
2023-03-02T00:53:38.862Z,10.34
2023-03-02T00:54:02.908Z,10.36
2023-03-02T00:54:25.564Z,10.39
2023-03-02T00:54:47.172Z,10.37
2023-03-02T00:55:10.234Z,10.34
2023-03-02T00:55:31.950Z,10.38
2023-03-02T00:55:54.506Z,10.38
2023-03-02T00:56:17.934Z,10.37
2023-03-02T00:56:43.725Z,10.36
2023-03-02T00:57:05.309Z,10.35
2023-03-02T00:57:26.993Z,10.35
2023-03-02T00:57:55.117Z,10.34
2023-03-02T00:58:22.259Z,10.32
2023-03-02T00:58:43.818Z,10.36
2023-03-02T00:59:06.077Z,10.38
2023-03-02T00:59:29.270Z,10.22
2023-03-02T01:00:00.471Z,10.36
2023-03-02T01:00:28.368Z,10.35
2023-03-02T01:00:53.494Z,10.33
2023-03-02T01:01:18.273Z,10.31
2023-03-02T01:01:43.048Z,10.28
2023-03-02T01:02:05.504Z,10.25
2023-03-02T01:02:28.980Z,10.27
2023-03-02T01:02:51.147Z,10.28
2023-03-02T01:03:12.803Z,10.26
2023-03-02T01:03:34.847Z,10.26
2023-03-02T01:03:56.519Z,10.23
2023-03-02T01:04:19.391Z,10.24
2023-03-02T01:04:43.551Z,10.18
2023-03-02T01:05:05.824Z,10.22
2023-03-02T01:05:28.353Z,10.19
2023-03-02T01:05:55.257Z,10.18
2023-03-02T01:06:20.851Z,10.18
2023-03-02T01:06:47.106Z,10.17
2023-03-02T01:07:11.719Z,10.16
2023-03-02T01:07:34.664Z,10.18
2023-03-02T01:07:57.266Z,10.20
2023-03-02T01:08:18.909Z,10.18
2023-03-02T01:08:40.532Z,10.19
2023-03-02T01:09:02.173Z,10.19
2023-03-02T01:09:25.017Z,10.19
2023-03-02T01:09:48.401Z,10.21
2023-03-02T01:10:11.589Z,10.18
2023-03-02T01:10:34.221Z,10.18
2023-03-02T01:10:56.929Z,10.16
2023-03-02T01:11:21.688Z,10.01
2023-03-02T01:11:43.406Z,10.10
2023-03-02T01:12:09.254Z,10.10
2023-03-02T01:12:33.136Z,10.11
2023-03-02T01:12:54.856Z,10.08
2023-03-02T01:13:17.686Z,10.08
2023-03-02T01:13:39.319Z,10.12
2023-03-02T01:14:01.862Z,10.05
2023-03-02T01:14:24.661Z,10.10
2023-03-02T01:14:48.637Z,10.10
2023-03-02T01:15:11.146Z,10.07
2023-03-02T01:15:34.363Z,10.06
2023-03-02T01:16:02.678Z,10.06
2023-03-02T01:16:24.457Z,10.07
2023-03-02T01:16:47.229Z,10.08
2023-03-02T01:17:10.755Z,10.06
2023-03-02T01:17:34.273Z,10.05
2023-03-02T01:17:56.356Z,10.00
2023-03-02T01:18:17.932Z,10.04
2023-03-02T01:18:40.660Z,10.02
2023-03-02T01:19:02.709Z,9.98
2023-03-02T01:19:24.310Z,10.02
2023-03-02T01:19:46.375Z,10.00
2023-03-02T01:20:19.937Z,10.00
2023-03-02T01:20:41.671Z,9.96
2023-03-02T01:21:05.344Z,9.97
2023-03-02T01:21:26.964Z,9.98
2023-03-02T01:21:51.057Z,10.00
2023-03-02T01:22:12.717Z,10.00
2023-03-02T01:22:35.643Z,9.98
2023-03-02T01:22:57.443Z,9.98
2023-03-02T01:23:19.131Z,10.02
2023-03-02T01:23:42.081Z,10.01
2023-03-02T01:24:04.445Z,10.02
2023-03-02T01:24:26.318Z,10.01
2023-03-02T01:24:48.033Z,10.01
2023-03-02T01:25:11.765Z,9.96
2023-03-02T01:25:34.810Z,9.99
2023-03-02T01:25:56.469Z,9.98
2023-03-02T01:26:18.081Z,9.87
2023-03-02T01:26:39.710Z,9.97
2023-03-02T01:27:02.381Z,9.96
2023-03-02T01:27:24.095Z,9.96
2023-03-02T01:27:46.149Z,9.95
2023-03-02T01:28:07.703Z,9.95
2023-03-02T01:28:30.340Z,9.96
2023-03-02T01:28:55.385Z,9.98
2023-03-02T01:29:17.148Z,9.97
2023-03-02T01:29:39.778Z,9.97
2023-03-02T01:30:01.494Z,9.99
2023-03-02T01:30:23.176Z,10.00
2023-03-02T01:30:44.775Z,10.02
2023-03-02T01:31:06.492Z,10.03
2023-03-02T01:31:30.381Z,10.01
2023-03-02T01:31:52.293Z,10.06
2023-03-02T01:32:14.055Z,10.07
2023-03-02T01:32:35.955Z,10.05
2023-03-02T01:32:58.596Z,10.05
2023-03-02T01:33:21.318Z,10.04
2023-03-02T01:33:42.963Z,10.02
2023-03-02T01:34:04.646Z,10.00
2023-03-02T01:34:27.243Z,9.99
2023-03-02T01:34:48.906Z,9.98
2023-03-02T01:35:10.597Z,10.00
2023-03-02T01:35:32.371Z,9.98
2023-03-02T01:35:54.311Z,9.97
2023-03-02T01:36:17.227Z,9.82
2023-03-02T01:36:38.886Z,10.00
2023-03-02T01:37:00.770Z,10.02
2023-03-02T01:37:22.931Z,10.00
2023-03-02T01:37:46.878Z,10.00
2023-03-02T01:38:09.901Z,9.98
2023-03-02T01:38:32.023Z,9.98
2023-03-02T01:38:54.218Z,9.93
2023-03-02T01:39:16.198Z,9.91
2023-03-02T01:40:22.279Z,9.90
2023-03-02T01:40:43.913Z,9.89
2023-03-02T01:41:05.701Z,9.88
2023-03-02T01:41:28.450Z,9.88
2023-03-02T01:41:52.127Z,9.85
2023-03-02T01:42:16.271Z,9.81
2023-03-02T01:42:39.581Z,9.81
2023-03-02T01:43:04.577Z,9.85
2023-03-02T01:43:29.226Z,9.84
2023-03-02T01:43:50.992Z,9.84
2023-03-02T01:44:35.607Z,9.85
2023-03-02T01:44:59.449Z,9.82
2023-03-02T01:45:46.234Z,9.80
2023-03-02T01:46:15.420Z,9.80
2023-03-02T01:46:41.641Z,9.81
2023-03-02T01:47:06.028Z,9.78
2023-03-02T01:47:32.801Z,9.79
2023-03-02T01:48:00.710Z,9.78
2023-03-02T01:48:27.853Z,9.60
2023-03-02T01:48:53.880Z,9.65
2023-03-02T01:49:23.866Z,9.75
2023-03-02T01:49:55.443Z,9.79
2023-03-02T01:50:21.336Z,9.74
2023-03-02T01:50:45.165Z,9.75
2023-03-02T01:51:08.786Z,9.74
2023-03-02T01:51:36.284Z,9.74
2023-03-02T01:51:58.028Z,9.74
2023-03-02T01:52:20.989Z,9.71
2023-03-02T01:52:44.082Z,9.71
2023-03-02T01:53:07.514Z,9.72
2023-03-02T01:53:32.053Z,9.64
2023-03-02T01:53:59.414Z,9.74
2023-03-02T01:54:23.381Z,9.74
2023-03-02T01:54:50.490Z,9.68
2023-03-02T01:55:17.102Z,9.67
2023-03-02T01:55:39.675Z,9.65
2023-03-02T01:56:07.152Z,9.65
2023-03-02T01:56:31.668Z,9.60
2023-03-02T01:56:58.155Z,9.65
2023-03-02T01:57:25.931Z,9.64
2023-03-02T01:57:50.234Z,9.65
2023-03-02T01:58:13.466Z,9.63
2023-03-02T01:58:37.010Z,9.62
2023-03-02T01:59:03.294Z,9.61
2023-03-02T01:59:27.855Z,9.49
2023-03-02T01:59:54.606Z,9.58
2023-03-02T02:00:24.048Z,9.58
2023-03-02T02:00:46.447Z,9.57
2023-03-02T02:01:15.648Z,9.56
2023-03-02T02:01:42.427Z,9.54
2023-03-02T02:02:09.049Z,9.51
2023-03-02T02:02:30.746Z,9.47
2023-03-02T02:02:54.748Z,9.54
2023-03-02T02:03:24.512Z,9.52
2023-03-02T02:03:50.023Z,9.47
2023-03-02T02:04:12.937Z,9.54
2023-03-02T02:04:39.910Z,9.52
2023-03-02T02:05:05.872Z,9.53
2023-03-02T02:05:28.376Z,9.50
2023-03-02T02:06:00.135Z,9.53
2023-03-02T02:06:25.678Z,9.51
2023-03-02T02:06:54.020Z,9.46
2023-03-02T02:07:16.138Z,9.50
2023-03-02T02:07:38.653Z,9.50
2023-03-02T02:08:01.543Z,9.50
2023-03-02T02:08:25.429Z,9.49
2023-03-02T02:08:48.735Z,9.46
2023-03-02T02:09:14.244Z,9.49
2023-03-02T02:09:41.178Z,9.48
2023-03-02T02:10:03.779Z,9.49
2023-03-02T02:10:25.668Z,9.49
2023-03-02T02:10:47.421Z,9.47
2023-03-02T02:11:10.105Z,9.47
2023-03-02T02:11:31.695Z,9.49
2023-03-02T02:11:53.359Z,9.48
2023-03-02T02:12:16.553Z,9.47
2023-03-02T02:12:39.138Z,9.46
2023-03-02T02:13:01.532Z,9.49
2023-03-02T02:13:23.369Z,9.48
2023-03-02T02:13:45.504Z,9.50
2023-03-02T02:14:07.521Z,9.49
2023-03-02T02:14:30.209Z,9.50
2023-03-02T02:14:53.947Z,9.51
2023-03-02T02:15:15.581Z,9.51
2023-03-02T02:15:38.865Z,9.50
2023-03-02T02:16:01.784Z,9.46
2023-03-02T02:16:23.763Z,9.52
2023-03-02T02:16:45.602Z,9.50
2023-03-02T02:17:08.953Z,9.51
2023-03-02T02:17:31.360Z,9.52
2023-03-02T02:17:54.356Z,9.51
2023-03-02T02:18:17.022Z,9.50
2023-03-02T02:18:41.026Z,9.49
2023-03-02T02:19:06.540Z,9.48
2023-03-02T02:19:40.017Z,9.48
2023-03-02T02:20:19.506Z,9.47
2023-03-02T02:20:45.211Z,9.49
2023-03-02T02:21:07.909Z,9.45
2023-03-02T02:21:30.551Z,9.43
2023-03-02T02:21:52.284Z,9.40
2023-03-02T02:22:22.400Z,9.44
2023-03-02T02:22:56.454Z,9.44
2023-03-02T02:23:27.983Z,9.44
2023-03-02T02:24:00.894Z,9.36
2023-03-02T02:24:30.089Z,9.32
2023-03-02T02:24:57.222Z,9.40
2023-03-02T02:25:33.397Z,9.39
2023-03-02T02:26:12.820Z,9.37
2023-03-02T02:26:38.552Z,9.39
2023-03-02T02:27:01.688Z,9.37
2023-03-02T02:27:33.705Z,9.41
2023-03-02T02:27:57.161Z,9.40
2023-03-02T02:28:24.068Z,9.39
2023-03-02T02:28:58.573Z,9.35
2023-03-02T02:29:26.736Z,9.35
2023-03-02T02:29:52.447Z,9.37
2023-03-02T02:30:17.353Z,9.37
2023-03-02T02:30:40.613Z,9.36
2023-03-02T02:31:10.844Z,9.36
2023-03-02T02:31:38.637Z,9.35
2023-03-02T02:32:06.617Z,9.31
2023-03-02T02:32:32.442Z,9.36
2023-03-02T02:32:56.774Z,9.38
2023-03-02T02:33:22.093Z,9.38
2023-03-02T02:33:48.316Z,9.35
2023-03-02T02:34:14.161Z,9.37
2023-03-02T02:34:40.510Z,9.34
2023-03-02T02:35:05.567Z,9.15
2023-03-02T02:35:31.240Z,9.29
2023-03-02T02:36:02.061Z,9.28
2023-03-02T02:36:33.353Z,9.15
2023-03-02T02:37:04.561Z,9.28
2023-03-02T02:37:30.904Z,9.28
2023-03-02T02:37:57.245Z,9.27
2023-03-02T02:38:21.929Z,9.23
2023-03-02T02:38:48.148Z,9.22
2023-03-02T02:39:19.446Z,9.22
2023-03-02T02:39:45.838Z,9.20
2023-03-02T02:40:15.384Z,9.21
2023-03-02T02:40:46.114Z,9.20
2023-03-02T02:41:16.560Z,9.19
2023-03-02T02:41:40.024Z,9.19
2023-03-02T02:42:05.977Z,9.19
2023-03-02T02:42:31.725Z,9.22
2023-03-02T02:42:54.318Z,9.25
2023-03-02T02:43:19.169Z,9.24
2023-03-02T02:43:42.140Z,9.25
2023-03-02T02:44:05.685Z,9.22
2023-03-02T02:44:27.934Z,9.23
2023-03-02T02:44:50.377Z,9.25
2023-03-02T02:45:20.623Z,9.23
2023-03-02T02:45:42.503Z,9.27
2023-03-02T02:46:05.462Z,9.26
2023-03-02T02:46:29.286Z,9.29
2023-03-02T02:46:51.177Z,9.29
2023-03-02T02:47:17.374Z,9.27
2023-03-02T02:47:40.014Z,9.28
2023-03-02T02:48:02.463Z,9.31
2023-03-02T02:48:26.957Z,9.33
2023-03-02T02:48:48.822Z,9.36
2023-03-02T02:49:22.436Z,9.31
2023-03-02T02:49:44.842Z,9.40
2023-03-02T02:50:16.791Z,9.39
2023-03-02T02:50:38.562Z,9.32
2023-03-02T02:51:02.949Z,9.41
2023-03-02T02:51:28.683Z,9.43
2023-03-02T02:51:50.597Z,9.43
2023-03-02T02:52:16.813Z,9.42
2023-03-02T02:52:41.562Z,9.34
2023-03-02T02:53:07.142Z,9.40
2023-03-02T02:53:42.802Z,9.37
2023-03-02T02:54:04.710Z,9.33
2023-03-02T02:54:32.292Z,9.39
2023-03-02T02:54:56.275Z,9.35
2023-03-02T02:55:23.373Z,9.36
2023-03-02T02:55:50.108Z,9.37
2023-03-02T02:56:15.255Z,9.36
2023-03-02T02:56:39.658Z,9.25
2023-03-02T02:57:05.334Z,9.34
2023-03-02T02:57:30.976Z,9.34
2023-03-02T02:57:56.344Z,9.36
2023-03-02T02:58:30.060Z,9.34
2023-03-02T02:58:53.995Z,9.33
2023-03-02T02:59:20.091Z,9.31
2023-03-02T02:59:45.759Z,9.29
2023-03-02T03:00:19.125Z,9.25
2023-03-02T03:00:42.385Z,9.27
2023-03-02T03:01:04.872Z,9.27
2023-03-02T03:01:29.111Z,9.25
2023-03-02T03:01:52.538Z,9.25
2023-03-02T03:02:20.840Z,9.26
2023-03-02T03:02:45.283Z,9.23
2023-03-02T03:03:30.615Z,9.26
2023-03-02T03:03:58.936Z,9.28
2023-03-02T03:04:24.723Z,9.27
2023-03-02T03:04:47.193Z,9.27
2023-03-02T03:05:14.475Z,9.19
2023-03-02T03:05:36.176Z,9.26
2023-03-02T03:06:00.369Z,9.24
2023-03-02T03:06:25.832Z,9.23
2023-03-02T03:06:53.165Z,9.23
2023-03-02T03:07:20.518Z,9.14
2023-03-02T03:07:42.407Z,9.19
2023-03-02T03:08:09.008Z,9.09
2023-03-02T03:09:01.965Z,9.14
2023-03-02T03:09:32.740Z,9.12
2023-03-02T03:10:01.331Z,9.07
2023-03-02T03:10:29.397Z,9.10
2023-03-02T03:10:52.342Z,9.08
2023-03-02T03:11:19.336Z,9.10
2023-03-02T03:11:43.471Z,9.12
2023-03-02T03:12:15.063Z,9.12
2023-03-02T03:12:39.625Z,9.16
2023-03-02T03:13:02.253Z,9.13
2023-03-02T03:13:24.178Z,9.16
2023-03-02T03:13:47.243Z,9.15
2023-03-02T03:14:12.670Z,9.07
2023-03-02T03:14:36.858Z,9.16
2023-03-02T03:15:01.286Z,9.14
2023-03-02T03:15:23.140Z,9.19
2023-03-02T03:15:45.976Z,9.18
2023-03-02T03:16:11.249Z,9.16
2023-03-02T03:16:33.808Z,9.15
2023-03-02T03:16:56.347Z,9.13
2023-03-02T03:17:19.095Z,9.15
2023-03-02T03:17:48.143Z,9.14
2023-03-02T03:18:09.783Z,9.16
2023-03-02T03:18:32.874Z,9.15
2023-03-02T03:18:56.118Z,9.14
2023-03-02T03:19:22.926Z,9.15
2023-03-02T03:19:46.643Z,9.13
2023-03-02T03:20:09.783Z,9.14
2023-03-02T03:20:36.364Z,9.15
2023-03-02T03:20:58.094Z,9.10
2023-03-02T03:21:20.684Z,9.12
2023-03-02T03:21:42.460Z,9.11
2023-03-02T03:22:04.600Z,9.14
2023-03-02T03:22:30.908Z,9.12
2023-03-02T03:22:53.376Z,9.13
2023-03-02T03:23:15.416Z,9.11
2023-03-02T03:23:38.249Z,9.12
2023-03-02T03:24:01.329Z,9.12
2023-03-02T03:24:25.478Z,9.13
2023-03-02T03:24:47.963Z,9.14
2023-03-02T03:25:15.617Z,9.16
2023-03-02T03:25:41.715Z,9.15
2023-03-02T03:26:05.173Z,9.18
2023-03-02T03:26:28.213Z,9.19
2023-03-02T03:26:50.263Z,9.05
2023-03-02T03:27:15.466Z,9.20
2023-03-02T03:27:39.038Z,9.19
2023-03-02T03:28:00.658Z,9.17
2023-03-02T03:28:22.553Z,9.18
2023-03-02T03:28:44.409Z,9.22
2023-03-02T03:29:06.163Z,9.22
2023-03-02T03:29:30.517Z,9.22
2023-03-02T03:29:54.987Z,9.21
2023-03-02T03:30:17.417Z,9.22
2023-03-02T03:30:39.497Z,9.25
2023-03-02T03:31:01.352Z,9.22
2023-03-02T03:31:24.721Z,9.24
2023-03-02T03:31:46.940Z,9.25
2023-03-02T03:32:09.243Z,9.25
2023-03-02T03:32:35.338Z,9.14
2023-03-02T03:32:57.095Z,9.24
2023-03-02T03:33:19.724Z,9.25
2023-03-02T03:33:41.537Z,9.22
2023-03-02T03:34:03.605Z,9.23
2023-03-02T03:34:29.917Z,9.22
2023-03-02T03:34:52.489Z,9.21
2023-03-02T03:35:21.577Z,9.20
2023-03-02T03:35:43.305Z,9.18
2023-03-02T03:36:06.025Z,9.18
2023-03-02T03:36:30.056Z,9.18
2023-03-02T03:36:52.246Z,9.20
2023-03-02T03:37:17.701Z,9.18
2023-03-02T03:37:41.082Z,9.16
2023-03-02T03:38:06.023Z,9.15
2023-03-02T03:38:27.879Z,9.17
2023-03-02T03:38:49.808Z,9.19
2023-03-02T03:39:12.582Z,9.06
2023-03-02T03:39:36.065Z,9.05
2023-03-02T03:39:58.734Z,9.11
2023-03-02T03:40:20.581Z,9.14
2023-03-02T03:40:43.219Z,9.16
2023-03-02T03:41:06.048Z,9.18
2023-03-02T03:41:30.165Z,9.15
2023-03-02T03:41:51.874Z,9.18
2023-03-02T03:42:13.641Z,9.20
2023-03-02T03:42:37.268Z,9.21
2023-03-02T03:42:59.317Z,9.21
2023-03-02T03:43:21.461Z,9.20
2023-03-02T03:43:47.098Z,9.22
2023-03-02T03:44:10.505Z,9.13
2023-03-02T03:44:34.560Z,9.19
2023-03-02T03:44:56.381Z,9.16
2023-03-02T03:45:18.517Z,9.21
2023-03-02T03:45:40.455Z,9.19
2023-03-02T03:46:03.815Z,9.17
2023-03-02T03:46:25.743Z,9.22
2023-03-02T03:46:47.456Z,9.25
2023-03-02T03:47:09.149Z,9.25
2023-03-02T03:47:31.933Z,9.24
2023-03-02T03:47:54.379Z,9.19
2023-03-02T03:48:16.147Z,9.20
2023-03-02T03:48:37.812Z,9.19
2023-03-02T03:48:59.779Z,9.12
2023-03-02T03:49:22.460Z,9.16
2023-03-02T03:49:44.447Z,9.15
2023-03-02T03:50:06.890Z,9.14
2023-03-02T03:50:28.784Z,9.14
2023-03-02T03:50:52.193Z,9.12
2023-03-02T03:51:14.134Z,9.08
2023-03-02T03:51:35.887Z,9.10
2023-03-02T03:51:59.388Z,9.09
2023-03-02T03:52:30.269Z,9.06
2023-03-02T03:52:57.183Z,9.04
2023-03-02T03:53:21.895Z,9.00
2023-03-02T03:53:43.978Z,9.04
2023-03-02T03:54:09.386Z,9.00
2023-03-02T03:54:35.327Z,9.00
2023-03-02T03:54:57.672Z,8.86
2023-03-02T03:55:19.861Z,8.93
2023-03-02T03:55:44.239Z,8.94
2023-03-02T03:56:06.483Z,8.94
2023-03-02T03:56:31.811Z,8.96
2023-03-02T03:56:53.624Z,8.93
2023-03-02T03:57:16.165Z,8.97
2023-03-02T03:57:38.309Z,9.00
2023-03-02T03:58:00.115Z,8.98
2023-03-02T03:58:21.825Z,8.95
2023-03-02T03:58:43.713Z,8.95
2023-03-02T03:59:08.814Z,8.95
2023-03-02T03:59:36.207Z,8.98
2023-03-02T03:59:58.766Z,8.99
2023-03-02T04:00:24.877Z,9.01
2023-03-02T04:00:57.822Z,9.04
2023-03-02T04:01:19.951Z,9.02
2023-03-02T04:01:44.982Z,9.02
2023-03-02T04:02:07.794Z,9.04
2023-03-02T04:02:33.057Z,9.05
2023-03-02T04:02:54.940Z,9.07
2023-03-02T04:03:20.013Z,8.99
2023-03-02T04:03:41.658Z,9.02
2023-03-02T04:04:04.359Z,9.04
2023-03-02T04:04:28.114Z,8.86
2023-03-02T04:04:50.260Z,8.89
2023-03-02T04:05:15.190Z,8.97
2023-03-02T04:05:36.857Z,9.00
2023-03-02T04:05:59.787Z,9.01
2023-03-02T04:06:21.463Z,9.01
2023-03-02T04:06:44.836Z,9.07
2023-03-02T04:07:06.683Z,9.09
2023-03-02T04:07:28.546Z,9.10
2023-03-02T04:07:50.505Z,9.07
2023-03-02T04:08:14.087Z,9.06
2023-03-02T04:08:35.686Z,9.10
2023-03-02T04:08:58.179Z,9.13
2023-03-02T04:09:20.049Z,9.14
2023-03-02T04:09:43.542Z,9.06
2023-03-02T04:10:09.210Z,9.08
2023-03-02T04:10:33.052Z,8.94
2023-03-02T04:10:55.541Z,9.09
2023-03-02T04:11:18.200Z,9.04
2023-03-02T04:11:44.845Z,9.05
2023-03-02T04:12:09.416Z,9.09
2023-03-02T04:12:35.717Z,9.11
2023-03-02T04:12:57.924Z,9.12
2023-03-02T04:13:26.133Z,9.10
2023-03-02T04:13:48.866Z,9.10
2023-03-02T04:14:12.705Z,9.12
2023-03-02T04:14:35.487Z,9.15
2023-03-02T04:14:58.193Z,9.12
2023-03-02T04:15:20.398Z,9.14
2023-03-02T04:15:46.811Z,9.13
2023-03-02T04:16:09.014Z,9.15
2023-03-02T04:16:33.068Z,9.14
2023-03-02T04:16:56.292Z,9.12
2023-03-02T04:17:18.813Z,9.12
2023-03-02T04:17:43.500Z,9.10
2023-03-02T04:18:06.358Z,9.10
2023-03-02T04:18:29.598Z,9.08
2023-03-02T04:18:51.220Z,9.07
2023-03-02T04:19:14.087Z,9.06
2023-03-02T04:19:37.998Z,9.01
2023-03-02T04:20:00.395Z,9.04
2023-03-02T04:20:23.900Z,9.05
2023-03-02T04:20:48.297Z,9.02
2023-03-02T04:21:10.905Z,9.05
2023-03-02T04:21:32.478Z,8.82
2023-03-02T04:21:54.890Z,8.93
2023-03-02T04:22:20.019Z,9.06
2023-03-02T04:22:41.622Z,9.07
2023-03-02T04:23:05.047Z,9.04
2023-03-02T04:23:26.792Z,9.04
2023-03-02T04:23:48.460Z,9.00
2023-03-02T04:24:10.331Z,8.98
2023-03-02T04:24:35.261Z,9.01
2023-03-02T04:24:59.631Z,8.98
2023-03-02T04:25:23.957Z,8.99
2023-03-02T04:25:48.760Z,9.02
2023-03-02T04:26:14.430Z,8.99
2023-03-02T04:26:37.212Z,9.00
2023-03-02T04:27:01.241Z,9.02
2023-03-02T04:27:23.296Z,9.00
2023-03-02T04:27:45.285Z,9.00
2023-03-02T04:28:07.091Z,9.05
2023-03-02T04:28:33.128Z,9.04
2023-03-02T04:28:54.861Z,9.03
2023-03-02T04:29:17.936Z,9.04
2023-03-02T04:29:40.545Z,9.04
2023-03-02T04:30:04.226Z,9.08
2023-03-02T04:30:28.148Z,9.06
2023-03-02T04:30:51.511Z,9.08
2023-03-02T04:31:13.407Z,9.07
2023-03-02T04:31:35.362Z,9.09
2023-03-02T04:31:58.272Z,9.10
2023-03-02T04:32:21.145Z,9.10
2023-03-02T04:32:47.887Z,9.10
2023-03-02T04:33:09.779Z,9.08
2023-03-02T04:33:32.489Z,9.08
2023-03-02T04:33:55.367Z,9.04
2023-03-02T04:34:17.133Z,9.08
2023-03-02T04:34:40.056Z,9.06
2023-03-02T04:35:02.902Z,9.05
2023-03-02T04:35:25.569Z,8.97
2023-03-02T04:35:47.227Z,9.05
2023-03-02T04:36:09.602Z,9.00
2023-03-02T04:36:33.189Z,9.04
2023-03-02T04:36:57.286Z,9.05
2023-03-02T04:37:18.919Z,9.05
2023-03-02T04:37:41.635Z,9.04
2023-03-02T04:38:04.387Z,9.01
2023-03-02T04:38:29.420Z,9.03
2023-03-02T04:38:51.595Z,9.07
2023-03-02T04:39:15.420Z,9.09
2023-03-02T04:39:39.567Z,9.09
2023-03-02T04:40:02.162Z,9.07
2023-03-02T04:40:23.877Z,9.09
2023-03-02T04:40:46.096Z,9.10
2023-03-02T04:41:07.755Z,9.05
2023-03-02T04:41:30.403Z,9.06
2023-03-02T04:41:52.992Z,9.03
2023-03-02T04:42:15.920Z,8.91
2023-03-02T04:42:37.516Z,9.04
2023-03-02T04:43:00.064Z,9.00
2023-03-02T04:43:21.650Z,8.98
2023-03-02T04:43:43.499Z,8.98
2023-03-02T04:44:05.269Z,8.97
2023-03-02T04:44:28.073Z,8.98
2023-03-02T04:44:50.151Z,8.97
2023-03-02T04:45:13.367Z,8.94
2023-03-02T04:45:35.010Z,8.94
2023-03-02T04:45:59.926Z,8.94
2023-03-02T04:46:24.331Z,8.90
2023-03-02T04:46:47.001Z,8.82
2023-03-02T04:47:09.688Z,8.88
2023-03-02T04:47:32.257Z,8.88
2023-03-02T04:47:54.233Z,8.87
2023-03-02T04:48:15.947Z,8.87
2023-03-02T04:48:37.522Z,8.86
2023-03-02T04:49:00.099Z,8.90
2023-03-02T04:49:21.791Z,8.90
2023-03-02T04:49:43.612Z,8.93
2023-03-02T04:50:06.538Z,8.92
2023-03-02T04:50:28.193Z,8.93
2023-03-02T04:50:50.924Z,8.94
2023-03-02T04:51:18.751Z,8.92
2023-03-02T04:51:43.413Z,8.93
2023-03-02T04:52:07.413Z,8.93
2023-03-02T04:52:30.076Z,8.93
2023-03-02T04:52:51.715Z,8.92
2023-03-02T04:53:13.442Z,8.92
2023-03-02T04:53:35.069Z,8.92
2023-03-02T04:54:00.826Z,8.95
2023-03-02T04:54:25.572Z,8.96
2023-03-02T04:54:50.061Z,8.94
2023-03-02T04:55:18.073Z,8.89
2023-03-02T04:55:39.799Z,8.90
2023-03-02T04:56:02.354Z,8.90
2023-03-02T04:56:24.517Z,8.88
2023-03-02T04:56:48.388Z,8.88
2023-03-02T04:57:10.022Z,8.90
2023-03-02T04:57:33.517Z,8.86
2023-03-02T04:57:57.493Z,8.87
2023-03-02T04:58:19.126Z,8.89
2023-03-02T04:58:40.718Z,8.90
2023-03-02T04:59:02.472Z,8.89
2023-03-02T04:59:27.262Z,8.90
2023-03-02T04:59:50.120Z,8.86
2023-03-02T05:00:12.856Z,8.87
2023-03-02T05:00:35.261Z,8.89
2023-03-02T05:01:02.143Z,8.90
2023-03-02T05:01:24.747Z,8.87
2023-03-02T05:01:47.546Z,8.89
2023-03-02T05:02:10.288Z,8.81
2023-03-02T05:02:32.938Z,8.90
2023-03-02T05:02:54.858Z,8.92
2023-03-02T05:03:16.420Z,8.93
2023-03-02T05:03:38.080Z,8.93
2023-03-02T05:04:03.012Z,8.95
2023-03-02T05:04:25.150Z,8.92
2023-03-02T05:04:46.915Z,8.92
2023-03-02T05:05:15.681Z,8.90
2023-03-02T05:05:38.451Z,8.88
2023-03-02T05:06:02.044Z,8.85
2023-03-02T05:06:25.038Z,8.87
2023-03-02T05:06:46.713Z,8.87
2023-03-02T05:07:09.363Z,8.86
2023-03-02T05:07:31.059Z,8.87
2023-03-02T05:07:53.577Z,8.88
2023-03-02T05:08:15.158Z,8.91
2023-03-02T05:08:37.250Z,8.89
2023-03-02T05:09:01.427Z,8.91
2023-03-02T05:09:27.170Z,8.93
2023-03-02T05:09:48.774Z,8.91
2023-03-02T05:10:12.311Z,8.91
2023-03-02T05:10:34.101Z,8.93
2023-03-02T05:10:55.790Z,8.92
2023-03-02T05:11:25.798Z,8.91
2023-03-02T05:11:47.473Z,8.90
2023-03-02T05:12:10.080Z,8.87
2023-03-02T05:12:53.089Z,8.84
2023-03-02T05:13:14.619Z,8.82
2023-03-02T05:13:36.331Z,8.82
2023-03-02T05:14:01.289Z,8.84
2023-03-02T05:14:23.310Z,8.82
2023-03-02T05:14:45.864Z,8.88
2023-03-02T05:15:08.036Z,8.89
2023-03-02T05:15:33.251Z,8.86
2023-03-02T05:15:57.406Z,8.87